Time;durP1;ratioP1;P1;durP2;ratioP2;P2;SDS_P1;SDS_P2;PMS_P1;PMS_P2;Temp;Humidity;BMP_temperature;BMP_pressure;BME280_temperature;BME280_humidity;BME280_pressure;Samples;Min_cycle;Max_cycle;Signal;HPM_P1;HPM_P2
2023/07/19 00:02:17;;;;;;;4.72;2.40;;;;;;;17.04;100.00;101440.78;4888137;29;20049;-83
2023/07/19 00:04:45;;;;;;;3.75;2.20;;;;;;;17.03;100.00;101438.16;4881917;29;20056;-83
2023/07/19 00:07:12;;;;;;;6.05;2.40;;;;;;;17.02;100.00;101434.59;4876376;29;20053;-82
2023/07/19 00:09:39;;;;;;;4.43;2.33;;;;;;;17.01;100.00;101432.84;4880398;29;20052;-84
2023/07/19 00:12:13;;;;;;;2.47;2.17;;;;;;;17.00;100.00;101430.22;4859690;29;20057;-83
2023/07/19 00:14:41;;;;;;;6.53;3.15;;;;;;;16.99;100.00;101429.31;4876846;29;20134;-84
2023/07/19 00:17:08;;;;;;;4.90;2.60;;;;;;;16.98;100.00;101416.94;4870090;29;20060;-83
2023/07/19 00:19:36;;;;;;;3.78;2.55;;;;;;;16.95;100.00;101409.84;4896576;29;20059;-82
2023/07/19 00:22:04;;;;;;;2.60;2.40;;;;;;;16.94;100.00;101410.75;4859637;29;20294;-83
2023/07/19 00:24:31;;;;;;;5.82;2.65;;;;;;;16.93;100.00;101402.78;4910486;29;20051;-82
2023/07/19 00:26:59;;;;;;;4.20;2.40;;;;;;;16.92;100.00;101406.38;4905393;29;20693;-82
2023/07/19 00:29:26;;;;;;;2.97;2.38;;;;;;;16.91;100.00;101397.47;4889263;29;20047;-82
2023/07/19 00:31:54;;;;;;;4.20;2.70;;;;;;;16.91;100.00;101399.28;4852195;29;20052;-82
2023/07/19 00:34:21;;;;;;;3.47;2.30;;;;;;;16.89;100.00;101393.09;4896319;29;20523;-82
2023/07/19 00:36:49;;;;;;;3.80;2.88;;;;;;;16.89;100.00;101395.75;4878495;29;20040;-83
2023/07/19 00:39:17;;;;;;;2.88;2.67;;;;;;;16.89;100.00;101398.41;4876844;29;20052;-82
2023/07/19 00:41:44;;;;;;;3.67;3.13;;;;;;;16.89;100.00;101403.75;4890083;29;20068;-82
2023/07/19 00:44:12;;;;;;;2.97;2.67;;;;;;;16.90;100.00;101397.50;4859348;29;20075;-82
2023/07/19 00:46:40;;;;;;;3.90;2.90;;;;;;;16.90;100.00;101392.16;4835455;29;20059;-84
2023/07/19 00:49:10;;;;;;;6.25;3.33;;;;;;;16.90;100.00;101386.84;4869556;29;20053;-84
2023/07/19 00:51:38;;;;;;;3.53;2.58;;;;;;;16.89;100.00;101380.66;4866050;29;20053;-83
2023/07/19 00:54:07;;;;;;;4.97;2.50;;;;;;;16.90;100.00;101384.19;4892359;29;20032;-83
2023/07/19 00:56:35;;;;;;;5.95;2.90;;;;;;;16.91;100.00;101384.16;4867962;29;20535;-82
2023/07/19 00:59:05;;;;;;;4.18;2.47;;;;;;;16.91;100.00;101388.63;4870996;29;20060;-82
2023/07/19 01:01:33;;;;;;;2.97;2.53;;;;;;;16.88;100.00;101376.25;4863311;29;20052;-82
2023/07/19 01:04:00;;;;;;;3.72;2.80;;;;;;;16.89;100.00;101383.31;4879103;29;20045;-83
2023/07/19 01:06:29;;;;;;;4.75;2.63;;;;;;;16.90;100.00;101384.19;4897116;29;20056;-82
2023/07/19 01:08:57;;;;;;;5.38;3.20;;;;;;;16.87;100.00;101377.13;4871015;29;20053;-83
2023/07/19 01:11:25;;;;;;;7.00;3.15;;;;;;;16.87;100.00;101369.16;4897386;29;20043;-83
2023/07/19 01:13:53;;;;;;;7.93;2.90;;;;;;;16.87;100.00;101374.47;4885403;29;20575;-81
2023/07/19 01:16:21;;;;;;;3.85;2.90;;;;;;;16.88;100.00;101383.34;4867755;29;20688;-83
2023/07/19 01:18:50;;;;;;;6.85;2.75;;;;;;;16.87;100.00;101371.81;4853440;29;20052;-83
2023/07/19 01:21:17;;;;;;;2.72;2.20;;;;;;;16.87;100.00;101369.16;4900555;29;20406;-83
2023/07/19 01:23:51;;;;;;;4.22;2.85;;;;;;;16.88;100.00;101367.38;4883637;29;20045;-84
2023/07/19 01:26:19;;;;;;;5.22;2.92;;;;;;;16.87;100.00;101365.63;4889015;29;20048;-83
2023/07/19 01:28:47;;;;;;;3.47;2.92;;;;;;;16.89;100.00;101361.16;4904858;29;20056;-82
2023/07/19 01:31:15;;;;;;;6.93;3.10;;;;;;;16.89;100.00;101362.03;4871187;29;20045;-83
2023/07/19 01:33:43;;;;;;;3.58;2.70;;;;;;;16.90;100.00;101349.59;4834629;29;20055;-82
2023/07/19 01:36:11;;;;;;;5.38;2.30;;;;;;;16.90;100.00;101355.81;4901439;29;20516;-81
2023/07/19 01:38:41;;;;;;;3.70;2.22;;;;;;;16.89;100.00;101353.16;4871601;29;20059;-83
2023/07/19 01:41:08;;;;;;;6.33;2.43;;;;;;;16.89;100.00;101347.84;4856512;29;20053;-82
2023/07/19 01:43:35;;;;;;;6.18;2.42;;;;;;;16.87;100.00;101345.19;4881430;29;20052;-82
2023/07/19 01:46:03;;;;;;;3.78;2.20;;;;;;;16.87;100.00;101344.31;4887515;29;20869;-82
2023/07/19 01:48:30;;;;;;;4.07;2.92;;;;;;;16.85;100.00;101336.34;4863709;29;20056;-83
2023/07/19 01:50:58;;;;;;;5.95;3.00;;;;;;;16.82;100.00;101331.06;4878336;29;20796;-83
2023/07/19 01:53:26;;;;;;;5.70;2.90;;;;;;;16.82;100.00;101328.41;4896594;29;20420;-83
2023/07/19 01:55:56;;;;;;;3.15;2.70;;;;;;;16.81;100.00;101326.63;4887372;29;20052;-83
2023/07/19 01:58:23;;;;;;;4.28;2.70;;;;;;;16.81;100.00;101325.75;4881729;29;20064;-83
2023/07/19 02:00:53;;;;;;;3.50;2.83;;;;;;;16.80;100.00;101324.84;4869643;29;20053;-83
2023/07/19 02:03:21;;;;;;;3.65;2.75;;;;;;;16.79;100.00;101330.22;4880287;29;20052;-83
2023/07/19 02:06:00;;;;;;;5.50;2.88;;;;;;;16.80;100.00;101322.19;4845717;29;20053;-82
2023/07/19 02:08:27;;;;;;;3.78;2.80;;;;;;;16.79;100.00;101322.25;4886438;29;20051;-83
2023/07/19 02:10:55;;;;;;;4.70;2.85;;;;;;;16.79;100.00;101322.25;4887803;29;20053;-82
2023/07/19 02:13:23;;;;;;;6.22;3.15;;;;;;;16.80;100.00;101319.53;4874532;29;20047;-82
2023/07/19 02:15:50;;;;;;;5.50;2.60;;;;;;;16.80;100.00;101310.69;4892377;29;20036;-83
2023/07/19 02:18:18;;;;;;;4.05;2.88;;;;;;;16.80;100.00;101306.22;4876683;29;20060;-83
2023/07/19 02:20:47;;;;;;;3.70;2.60;;;;;;;16.80;100.00;101314.22;4849117;29;20060;-84
2023/07/19 02:23:18;;;;;;;4.95;2.60;;;;;;;16.79;100.00;101311.59;4893934;29;20048;-82
2023/07/19 02:25:48;;;;;;;5.13;3.33;;;;;;;16.78;100.00;101305.38;4886680;29;20040;-83
2023/07/19 02:28:22;;;;;;;8.38;3.28;;;;;;;16.76;100.00;101299.19;4891564;29;20048;-83
2023/07/19 02:30:50;;;;;;;5.03;3.83;;;;;;;16.73;100.00;101308.13;4881399;29;20052;-82
2023/07/19 02:33:18;;;;;;;4.43;3.25;;;;;;;16.73;100.00;101299.25;4871626;29;20060;-83
2023/07/19 02:35:54;;;;;;;5.47;3.28;;;;;;;16.71;100.00;101299.28;4866113;29;20053;-84
2023/07/19 02:38:22;;;;;;;4.72;3.20;;;;;;;16.71;100.00;101296.63;4897378;29;20420;-82
2023/07/19 02:40:50;;;;;;;6.15;3.45;;;;;;;16.70;100.00;101296.63;4885503;29;20036;-82
2023/07/19 02:43:17;;;;;;;4.47;4.05;;;;;;;16.70;100.00;101300.16;4880705;29;20055;-83
2023/07/19 02:45:45;;;;;;;5.18;4.13;;;;;;;16.68;100.00;101296.66;4882251;29;20059;-83
2023/07/19 02:48:14;;;;;;;3.83;3.47;;;;;;;16.66;100.00;101295.81;4858334;29;20049;-82
2023/07/19 02:50:46;;;;;;;6.18;3.63;;;;;;;16.67;100.00;101294.00;4879418;29;20071;-84
2023/07/19 02:53:14;;;;;;;4.90;4.35;;;;;;;16.68;100.00;101288.69;4857761;29;20045;-83
2023/07/19 02:55:45;;;;;;;5.53;4.30;;;;;;;16.68;100.00;101285.16;4860484;29;20049;-82
2023/07/19 02:58:14;;;;;;;6.13;4.60;;;;;;;16.69;100.00;101301.09;4909722;29;20527;-82
2023/07/19 03:00:43;;;;;;;4.57;4.18;;;;;;;16.71;100.00;101298.38;4879978;29;20048;-82
2023/07/19 03:03:12;;;;;;;5.60;3.75;;;;;;;16.71;100.00;101295.72;4871918;29;20072;-82
2023/07/19 03:05:44;;;;;;;6.72;4.25;;;;;;;16.70;100.00;101294.84;4862424;29;20060;-82
2023/07/19 03:08:12;;;;;;;6.65;4.25;;;;;;;16.70;100.00;101299.31;4864537;29;20044;-82
2023/07/19 03:10:40;;;;;;;5.35;4.30;;;;;;;16.68;100.00;101296.66;4889102;29;20052;-83
2023/07/19 03:13:09;;;;;;;6.07;4.50;;;;;;;16.67;100.00;101286.94;4861358;29;20061;-81
2023/07/19 03:15:36;;;;;;;7.47;5.45;;;;;;;16.64;100.00;101292.28;4897168;29;20052;-83
2023/07/19 03:18:04;;;;;;;4.47;3.97;;;;;;;16.61;100.00;101292.31;4885660;29;20060;-83
2023/07/19 03:20:33;;;;;;;10.38;4.80;;;;;;;16.57;100.00;101280.84;4881676;29;20051;-83
2023/07/19 03:23:01;;;;;;;13.15;5.38;;;;;;;16.56;100.00;101289.75;4864476;29;20056;-82
2023/07/19 03:25:29;;;;;;;8.02;4.82;;;;;;;16.54;100.00;101290.66;4878458;29;20048;-83
2023/07/19 03:27:57;;;;;;;10.63;4.40;;;;;;;16.52;100.00;101292.44;4871571;29;20189;-83
2023/07/19 03:30:24;;;;;;;7.22;4.78;;;;;;;16.50;100.00;101295.16;4880289;29;20059;-83
2023/07/19 03:32:52;;;;;;;6.05;4.70;;;;;;;16.49;100.00;101284.53;4847679;29;20049;-83
2023/07/19 03:35:23;;;;;;;5.10;4.00;;;;;;;16.48;100.00;101282.75;4881219;29;20072;-81
2023/07/19 03:37:51;;;;;;;8.30;5.07;;;;;;;16.46;100.00;101279.25;4862870;29;20053;-83
2023/07/19 03:40:18;;;;;;;8.48;4.35;;;;;;;16.45;100.00;101283.69;4837903;29;20060;-82
2023/07/19 03:42:46;;;;;;;6.72;4.80;;;;;;;16.44;100.00;101281.06;4883708;29;20061;-83
2023/07/19 03:45:13;;;;;;;7.68;5.57;;;;;;;16.45;100.00;101282.81;4880375;29;20055;-83
2023/07/19 03:47:42;;;;;;;7.57;5.00;;;;;;;16.45;100.00;101272.19;4886682;29;20052;-84
2023/07/19 03:50:11;;;;;;;7.03;5.07;;;;;;;16.44;100.00;101271.28;4885313;29;20056;-83
2023/07/19 03:52:39;;;;;;;6.45;4.88;;;;;;;16.44;100.00;101271.28;4896952;29;20055;-82
2023/07/19 03:55:07;;;;;;;8.90;5.07;;;;;;;16.44;100.00;101273.06;4853028;29;20056;-83
2023/07/19 03:57:37;;;;;;;9.38;6.03;;;;;;;16.44;100.00;101270.41;4888197;29;20409;-82
2023/07/19 04:00:06;;;;;;;10.55;5.45;;;;;;;16.41;100.00;101276.66;4881173;29;20051;-84
2023/07/19 04:02:43;;;;;;;10.38;5.80;;;;;;;16.42;100.00;101274.88;4867137;29;20057;-85
2023/07/19 04:05:12;;;;;;;6.13;5.23;;;;;;;16.40;100.00;101271.38;4840743;29;20056;-82
2023/07/19 04:07:40;;;;;;;10.18;6.32;;;;;;;16.40;100.00;101263.38;4861951;29;20313;-82
2023/07/19 04:10:09;;;;;;;6.68;5.60;;;;;;;16.40;100.00;101260.72;4857668;29;20041;-82
2023/07/19 04:12:36;;;;;;;7.18;6.00;;;;;;;16.39;100.00;101262.50;4880809;29;20053;-82
2023/07/19 04:15:04;;;;;;;8.05;5.88;;;;;;;16.38;100.00;101261.59;4866518;29;20056;-82
2023/07/19 04:17:32;;;;;;;8.77;5.75;;;;;;;16.40;100.00;101264.25;4891688;29;20528;-82
2023/07/19 04:20:00;;;;;;;6.82;5.53;;;;;;;16.41;100.00;101268.69;4861112;29;20053;-82
2023/07/19 04:22:28;;;;;;;10.25;6.53;;;;;;;16.41;100.00;101267.78;4890100;29;20056;-82
2023/07/19 04:24:55;;;;;;;10.70;5.82;;;;;;;16.42;100.00;101265.09;4882767;29;20064;-83
2023/07/19 04:27:23;;;;;;;10.02;6.28;;;;;;;16.44;100.00;101270.41;4810333;29;20060;-82
2023/07/19 04:29:51;;;;;;;8.02;5.50;;;;;;;16.43;100.00;101264.22;4879986;29;20060;-83
2023/07/19 04:32:18;;;;;;;7.38;6.63;;;;;;;16.44;100.00;101260.66;4881714;29;20088;-82
2023/07/19 04:34:46;;;;;;;7.22;5.95;;;;;;;16.47;100.00;101265.06;4869028;29;20056;-84
2023/07/19 04:37:14;;;;;;;6.55;5.72;;;;;;;16.50;100.00;101255.25;4844044;29;20048;-83
2023/07/19 04:39:42;;;;;;;8.30;6.05;;;;;;;16.53;100.00;101259.66;4882538;29;20055;-82
2023/07/19 04:42:10;;;;;;;9.23;5.65;;;;;;;16.64;100.00;101262.16;4854395;29;20059;-82
2023/07/19 04:44:38;;;;;;;9.18;7.13;;;;;;;16.68;100.00;101264.72;4858273;29;20051;-83
2023/07/19 04:47:06;;;;;;;7.82;6.10;;;;;;;16.72;100.00;101262.91;4879044;29;20057;-82
2023/07/19 04:49:36;;;;;;;8.75;6.97;;;;;;;16.73;100.00;101268.19;4896843;29;20567;-83
2023/07/19 04:52:04;;;;;;;8.40;5.90;;;;;;;16.76;100.00;101270.78;4874118;29;20052;-81
2023/07/19 04:54:33;;;;;;;11.93;6.72;;;;;;;16.86;100.00;101273.34;4857523;29;20056;-82
2023/07/19 04:57:01;;;;;;;8.85;5.88;;;;;;;16.98;100.00;101269.63;4877616;29;20049;-82
2023/07/19 04:59:28;;;;;;;10.38;6.60;;;;;;;17.02;100.00;101268.66;4851349;29;20073;-82
2023/07/19 05:01:55;;;;;;;8.98;5.53;;;;;;;17.04;100.00;101262.41;4876000;29;20056;-82
2023/07/19 05:04:23;;;;;;;6.10;5.50;;;;;;;17.09;100.00;101263.22;4876702;29;20044;-82
2023/07/19 05:06:51;;;;;;;8.48;6.03;;;;;;;17.14;100.00;101260.44;4856658;29;20052;-81
2023/07/19 05:09:20;;;;;;;10.45;5.95;;;;;;;17.19;100.00;101257.72;4868220;29;20075;-82
2023/07/19 05:11:48;;;;;;;9.77;6.25;;;;;;;17.23;100.00;101259.44;4855753;29;20088;-81
2023/07/19 05:14:16;;;;;;;8.80;6.05;;;;;;;17.25;100.00;101258.47;4804158;29;20088;-81
2023/07/19 05:16:43;;;;;;;6.63;5.18;;;;;;;17.24;100.00;101261.16;4883130;29;20056;-82
2023/07/19 05:19:12;;;;;;;9.75;6.78;;;;;;;17.23;100.00;101259.44;4872160;29;20057;-82
2023/07/19 05:21:40;;;;;;;13.00;6.18;;;;;;;17.24;100.00;101261.16;4853136;29;20072;-83
2023/07/19 05:24:08;;;;;;;9.38;5.65;;;;;;;17.25;100.00;101274.47;4871217;29;20057;-82
2023/07/19 05:26:35;;;;;;;7.53;6.50;;;;;;;17.26;100.00;101265.59;4889848;29;20060;-82
2023/07/19 05:29:06;;;;;;;6.20;5.60;;;;;;;17.26;100.00;101262.91;4842172;29;20055;-82
2023/07/19 05:31:37;;;;;;;7.93;6.15;;;;;;;17.30;100.00;101264.63;4860349;29;20060;-82
2023/07/19 05:34:04;;;;;;;9.57;6.75;;;;;;;17.34;100.00;101260.13;4860761;29;20430;-82
2023/07/19 05:36:34;;;;;;;6.53;5.82;;;;;;;17.40;100.00;101267.13;4864728;29;20062;-82
2023/07/19 05:39:02;;;;;;;7.72;5.65;;;;;;;17.41;100.00;101266.19;4884205;29;20574;-82
2023/07/19 05:41:29;;;;;;;8.43;5.85;;;;;;;17.42;100.00;101268.84;4852908;29;20049;-81
2023/07/19 05:43:58;;;;;;;8.10;5.45;;;;;;;17.42;100.00;101268.84;4879988;29;20067;-81
2023/07/19 05:46:37;;;;;;;6.30;5.72;;;;;;;17.37;100.00;101270.69;4836674;29;20057;-83
2023/07/19 05:49:05;;;;;;;7.15;5.65;;;;;;;17.35;100.00;101267.19;4891626;29;20067;-82
2023/07/19 05:51:32;;;;;;;7.22;5.97;;;;;;;17.36;100.00;101279.59;4875925;29;20044;-83
2023/07/19 05:54:00;;;;;;;7.35;5.43;;;;;;;17.34;100.00;101270.75;4870381;29;20064;-83
2023/07/19 05:56:27;;;;;;;7.00;5.43;;;;;;;17.30;100.00;101274.41;4865495;29;20056;-82
2023/07/19 05:58:55;;;;;;;8.02;5.47;;;;;;;17.28;100.00;101276.22;4870370;29;20059;-82
2023/07/19 06:01:22;;;;;;;7.40;5.35;;;;;;;17.22;100.00;101273.63;4856605;29;20099;-84
2023/07/19 06:03:56;;;;;;;6.05;5.47;;;;;;;17.15;100.00;101270.22;4867004;29;20048;-82
2023/07/19 06:06:25;;;;;;;10.30;5.63;;;;;;;17.12;100.00;101262.28;4863404;29;20082;-81
2023/07/19 06:08:52;;;;;;;6.90;5.30;;;;;;;17.11;100.00;101265.84;4854437;29;20065;-82
2023/07/19 06:11:20;;;;;;;6.47;5.35;;;;;;;17.08;100.00;101268.56;4840135;29;20053;-82
2023/07/19 06:13:48;;;;;;;7.95;5.60;;;;;;;17.06;100.00;101271.25;4871709;29;20064;-83
2023/07/19 06:16:15;;;;;;;7.90;5.40;;;;;;;17.06;100.00;101281.03;4861269;29;20067;-83
2023/07/19 06:18:43;;;;;;;12.48;6.15;;;;;;;17.05;100.00;101276.59;4847863;29;20531;-83
2023/07/19 06:21:10;;;;;;;11.15;5.35;;;;;;;17.05;100.00;101276.59;4902995;29;20299;-81
2023/07/19 06:23:38;;;;;;;8.15;5.63;;;;;;;17.05;100.00;101274.81;4864677;29;20056;-83
2023/07/19 06:26:05;;;;;;;5.78;4.95;;;;;;;17.00;100.00;101274.00;4884100;29;20036;-83
2023/07/19 06:28:33;;;;;;;5.75;5.15;;;;;;;16.99;100.00;101276.69;4873674;29;20052;-83
2023/07/19 06:31:01;;;;;;;9.02;4.88;;;;;;;16.98;100.00;101278.50;4878878;29;20056;-82
2023/07/19 06:33:29;;;;;;;7.90;4.80;;;;;;;16.95;100.00;101282.06;4845728;29;20053;-83
2023/07/19 06:35:57;;;;;;;6.57;5.32;;;;;;;16.95;100.00;101289.19;4875461;29;20051;-83
2023/07/19 06:38:25;;;;;;;5.97;5.38;;;;;;;16.93;100.00;101281.22;4875118;29;20087;-83
2023/07/19 06:40:53;;;;;;;10.95;5.00;;;;;;;16.93;100.00;101296.31;4879219;29;20516;-82
2023/07/19 06:43:20;;;;;;;8.40;4.57;;;;;;;16.89;100.00;101290.16;4869319;29;20048;-83
2023/07/19 06:45:49;;;;;;;7.53;4.53;;;;;;;16.86;100.00;101294.63;4853871;29;20059;-82
2023/07/19 06:48:16;;;;;;;4.05;3.67;;;;;;;16.85;100.00;101291.09;4891750;29;20063;-83
2023/07/19 06:50:44;;;;;;;4.35;3.30;;;;;;;16.84;100.00;101281.38;4808651;29;20064;-84
2023/07/19 06:53:11;;;;;;;4.10;3.40;;;;;;;16.85;100.00;101290.25;4894655;29;20048;-83
2023/07/19 06:55:39;;;;;;;6.32;3.38;;;;;;;16.83;100.00;101287.59;4892834;29;20697;-82
2023/07/19 06:58:07;;;;;;;4.00;3.25;;;;;;;16.81;100.00;101289.38;4860832;29;20068;-83
2023/07/19 07:00:34;;;;;;;4.57;2.72;;;;;;;16.82;100.00;101282.25;4864142;29;20145;-83
2023/07/19 07:03:05;;;;;;;5.43;2.47;;;;;;;16.83;100.00;101289.38;4877759;29;20412;-83
2023/07/19 07:05:33;;;;;;;6.15;2.70;;;;;;;16.86;100.00;101282.25;4828162;29;20063;-82
2023/07/19 07:08:00;;;;;;;9.10;3.55;;;;;;;16.91;100.00;101274.16;4873660;29;20057;-83
2023/07/19 07:10:28;;;;;;;6.97;2.80;;;;;;;16.95;100.00;101278.53;4890783;29;20070;-83
2023/07/19 07:12:56;;;;;;;2.72;2.40;;;;;;;16.97;100.00;101262.53;4858585;29;20052;-82
2023/07/19 07:15:23;;;;;;;5.78;2.60;;;;;;;17.01;100.00;101274.88;4872500;29;20040;-83
2023/07/19 07:17:50;;;;;;;7.07;2.90;;;;;;;17.04;100.00;101278.38;4881807;29;20056;-83
2023/07/19 07:20:18;;;;;;;6.78;3.33;;;;;;;17.06;100.00;101281.88;4823424;29;20041;-82
2023/07/19 07:22:45;;;;;;;3.55;2.28;;;;;;;17.07;100.00;101283.66;4826888;29;20057;-83
2023/07/19 07:25:13;;;;;;;6.40;2.65;;;;;;;17.10;100.00;101280.94;4884398;29;21021;-82
2023/07/19 07:27:40;;;;;;;7.30;2.60;;;;;;;17.10;100.00;101278.25;4871141;29;20056;-82
2023/07/19 07:30:09;;;;;;;5.80;2.60;;;;;;;17.13;100.00;101275.56;4866754;29;20066;-82
2023/07/19 07:32:37;;;;;;;3.72;2.08;;;;;;;17.19;100.00;101277.25;4885125;29;20056;-81
2023/07/19 07:35:06;;;;;;;5.53;2.58;;;;;;;17.25;100.00;101281.59;4880819;29;20610;-83
2023/07/19 07:37:34;;;;;;;7.33;2.97;;;;;;;17.31;100.00;101282.34;4846959;29;20059;-81
2023/07/19 07:40:03;;;;;;;5.75;2.83;;;;;;;17.36;100.00;101282.28;4875499;29;20059;-82
2023/07/19 07:42:30;;;;;;;6.70;2.92;;;;;;;17.43;100.00;101286.59;4870639;29;20071;-84
2023/07/19 07:44:59;;;;;;;6.65;2.95;;;;;;;17.51;100.00;101281.13;4855144;29;20060;-83
2023/07/19 07:47:26;;;;;;;4.50;3.10;;;;;;;17.56;100.00;101281.00;4889753;29;20048;-83
2023/07/19 07:49:55;;;;;;;4.97;2.90;;;;;;;17.61;100.00;101274.69;4884862;29;20052;-81
2023/07/19 07:52:24;;;;;;;6.10;2.78;;;;;;;17.70;100.00;101273.66;4832582;29;20052;-83
2023/07/19 07:54:56;;;;;;;5.47;2.70;;;;;;;17.79;100.00;101270.81;4877674;29;20056;-83
2023/07/19 07:57:24;;;;;;;5.65;2.70;;;;;;;17.83;100.00;101275.16;4896379;29;20059;-82
2023/07/19 07:59:51;;;;;;;6.75;2.30;;;;;;;17.87;100.00;101276.88;4879488;29;20055;-87
2023/07/19 08:02:19;;;;;;;6.45;2.45;;;;;;;17.91;100.00;101275.91;4860232;29;20513;-82
2023/07/19 08:04:47;;;;;;;5.22;3.28;;;;;;;17.95;100.00;101273.19;4872256;29;20052;-82
2023/07/19 08:07:15;;;;;;;5.63;2.85;;;;;;;17.93;100.00;101273.22;4868029;29;20053;-84
2023/07/19 08:09:44;;;;;;;4.25;2.08;;;;;;;17.89;100.00;101280.38;4908882;29;20424;-83
2023/07/19 08:12:13;;;;;;;6.30;2.28;;;;;;;17.88;100.00;101270.66;4883286;29;20056;-82
2023/07/19 08:14:44;;;;;;;4.15;2.20;;;;;;;17.91;100.00;101270.56;4881932;29;20060;-82
2023/07/19 08:17:11;;;;;;;4.30;2.30;;;;;;;18.01;100.00;101278.38;4856966;29;20060;-82
2023/07/19 08:19:39;;;;;;;6.10;2.50;;;;;;;18.13;100.00;101272.81;4878007;29;20048;-82
2023/07/19 08:22:06;;;;;;;4.43;1.88;;;;;;;18.33;100.00;101268.81;4858994;29;20060;-82
2023/07/19 08:24:34;;;;;;;5.35;2.40;;;;;;;18.49;100.00;101265.75;4886041;29;20068;-80
2023/07/19 08:27:01;;;;;;;4.28;2.38;;;;;;;18.61;100.00;101264.59;4869371;29;20048;-80
2023/07/19 08:29:29;;;;;;;5.45;2.70;;;;;;;18.75;100.00;101263.38;4862735;29;20037;-81
2023/07/19 08:31:56;;;;;;;5.55;2.22;;;;;;;18.88;100.00;101259.53;4867510;29;20060;-81
2023/07/19 08:34:24;;;;;;;5.43;2.20;;;;;;;19.04;100.00;101257.38;4858753;29;20064;-81
2023/07/19 08:36:52;;;;;;;4.35;2.20;;;;;;;19.19;100.00;101261.44;4845195;29;20068;-81
2023/07/19 08:39:19;;;;;;;6.45;2.47;;;;;;;19.41;100.00;101251.94;4889626;29;20064;-81
2023/07/19 08:41:46;;;;;;;4.25;1.80;;;;;;;19.63;100.00;101259.34;4897247;29;20052;-84
2023/07/19 08:44:14;;;;;;;2.25;1.70;;;;;;;19.83;100.00;101253.50;4878651;29;20064;-83
2023/07/19 08:46:43;;;;;;;4.40;1.85;;;;;;;19.90;100.00;101256.84;4887888;29;20048;-80
2023/07/19 08:49:11;;;;;;;2.92;1.40;;;;;;;19.80;100.00;101259.78;4864256;29;20059;-81
2023/07/19 08:51:41;;;;;;;4.03;1.70;;;;;;;19.61;100.00;101266.53;4877512;29;20515;-81
2023/07/19 08:54:08;;;;;;;1.55;1.20;;;;;;;19.39;100.00;101260.91;4842153;29;20056;-80
2023/07/19 08:56:36;;;;;;;1.42;1.33;;;;;;;19.14;100.00;101269.56;4878076;29;20056;-81
2023/07/19 08:59:05;;;;;;;3.42;1.77;;;;;;;18.97;100.00;101261.09;4872845;29;20926;-81
2023/07/19 09:01:33;;;;;;;3.33;1.70;;;;;;;18.85;100.00;101264.97;4870090;29;20411;-81
2023/07/19 09:04:09;;;;;;;2.80;1.85;;;;;;;18.77;100.00;101267.78;4875188;29;20060;-81
2023/07/19 09:06:39;;;;;;;3.97;1.67;;;;;;;18.76;100.00;101273.16;4893187;29;20044;-82
2023/07/19 09:09:10;;;;;;;5.38;1.85;;;;;;;18.74;100.00;101269.66;4852436;29;20067;-81
2023/07/19 09:11:45;;;;;;;2.47;1.48;;;;;;;18.72;100.00;101271.50;4893287;29;20518;-81
2023/07/19 09:14:13;;;;;;;4.47;1.70;;;;;;;18.80;100.00;101262.41;4873168;29;20053;-81
2023/07/19 09:16:40;;;;;;;2.10;1.40;;;;;;;18.97;100.00;101264.66;4888110;29;20416;-81
2023/07/19 09:19:10;;;;;;;2.70;1.30;;;;;;;19.13;100.00;101274.94;4858818;29;21230;-80
2023/07/19 09:21:43;;;;;;;3.45;1.52;;;;;;;19.28;100.00;101280.78;4891376;29;20075;-80
2023/07/19 09:24:11;;;;;;;3.17;1.50;;;;;;;19.48;100.00;101269.53;4876398;29;20068;-83
2023/07/19 09:26:53;;;;;;;3.75;1.45;;;;;;;19.66;100.00;101272.66;4836117;29;20052;-78
2023/07/19 09:29:21;;;;;;;2.22;1.60;;;;;;;19.75;100.00;101274.19;4885375;29;20060;-82
2023/07/19 09:31:55;;;;;;;1.80;1.30;;;;;;;19.77;100.00;101265.25;4900650;29;20078;-82
2023/07/19 09:34:25;;;;;;;3.25;1.13;;;;;;;19.72;100.00;101271.59;4846388;29;20060;-81
2023/07/19 09:36:53;;;;;;;1.85;1.05;;;;;;;19.61;100.00;101272.75;4892011;29;20053;-83
2023/07/19 09:39:22;;;;;;;2.83;1.10;;;;;;;19.51;100.00;101276.63;4905213;29;20053;-81
2023/07/19 09:41:49;;;;;;;2.13;1.40;;;;;;;19.44;100.00;101275.03;4854373;29;20052;-83
2023/07/19 09:44:17;;;;;;;4.07;1.30;;;;;;;19.37;100.00;101281.44;4891309;29;20059;-83
2023/07/19 09:46:45;;;;;;;1.25;1.02;;;;;;;19.23;100.00;101279.16;4890381;29;20048;-83
2023/07/19 09:49:13;;;;;;;2.45;1.08;;;;;;;19.22;100.00;101277.38;4881129;29;20048;-82
2023/07/19 09:51:48;;;;;;;5.95;1.30;;;;;;;19.25;100.00;101280.84;4878884;29;20060;-82
2023/07/19 09:54:16;;;;;;;2.22;1.20;;;;;;;19.33;100.00;101285.13;4875387;29;20059;-82
2023/07/19 09:56:44;;;;;;;2.10;1.25;;;;;;;19.40;100.00;101284.91;4855128;29;20702;-81
2023/07/19 09:59:14;;;;;;;1.70;1.10;;;;;;;19.54;100.00;101272.97;4884280;29;20057;-82
2023/07/19 10:01:43;;;;;;;0.98;0.93;;;;;;;19.79;100.00;101279.44;4886337;29;20222;-83
2023/07/19 10:04:25;;;;;;;1.27;0.70;;;;;;;19.91;100.00;101283.56;4877195;29;20048;-82
2023/07/19 10:07:09;;;;;;;2.00;0.90;;;;;;;19.99;100.00;101288.69;4876272;29;20075;-82
2023/07/19 10:09:40;;;;;;;1.92;0.98;;;;;;;19.96;100.00;101286.09;4893969;29;20417;-82
2023/07/19 10:12:23;;;;;;;1.88;0.90;;;;;;;19.96;100.00;101296.78;4837040;29;20056;-82
2023/07/19 10:15:08;;;;;;;1.17;1.00;;;;;;;19.98;100.00;101293.16;4892229;29;20052;-83
2023/07/19 10:17:55;;;;;;;0.90;0.90;;;;;;;20.00;100.00;101294.00;4868727;29;20049;-81
2023/07/19 10:20:32;;;;;;;1.83;1.00;;;;;;;20.05;100.00;101296.50;4886295;29;20052;-82
2023/07/19 10:23:05;;;;;;;1.17;0.90;;;;;;;20.10;100.00;101301.75;4882165;29;20062;-81
2023/07/19 10:25:35;;;;;;;2.97;1.30;;;;;;;20.13;100.00;101298.97;4881494;29;20064;-82
2023/07/19 10:28:13;;;;;;;1.42;0.93;;;;;;;20.08;100.00;101304.47;4834377;29;20670;-82
2023/07/19 10:30:48;;;;;;;2.70;0.85;;;;;;;20.02;100.00;101299.31;4901789;29;20055;-81
2023/07/19 10:33:20;;;;;;;3.40;1.00;;;;;;;20.06;100.00;101300.97;4872233;29;20053;-82
2023/07/19 10:35:51;;;;;;;5.13;1.00;;;;;;;20.15;100.00;101303.38;4868182;29;20061;-83
2023/07/19 10:38:20;;;;;;;1.60;0.93;;;;;;;20.29;100.00;101304.75;4871268;29;20412;-83
2023/07/19 10:41:12;;;;;;;2.38;0.80;;;;;;;20.27;100.00;101311.97;4889561;29;20056;-82
2023/07/19 10:43:40;;;;;;;1.55;0.90;;;;;;;20.28;100.00;101303.84;4829907;29;20462;-83
2023/07/19 10:46:11;;;;;;;1.05;0.70;;;;;;;20.28;100.00;101301.19;4886766;29;20048;-83
2023/07/19 10:48:39;;;;;;;1.40;0.70;;;;;;;20.40;100.00;101300.81;4870234;29;20063;-84
2023/07/19 10:51:09;;;;;;;1.98;1.02;;;;;;;20.45;100.00;101306.03;4875398;29;20532;-82
2023/07/19 10:53:58;;;;;;;1.17;0.80;;;;;;;20.57;100.00;101299.44;4875413;29;20063;-82
2023/07/19 10:56:27;;;;;;;1.48;0.68;;;;;;;20.70;100.00;101305.28;4876807;29;20045;-82
2023/07/19 10:59:00;;;;;;;0.82;0.60;;;;;;;20.72;100.00;101298.09;4855529;29;20060;-83
2023/07/19 11:01:29;;;;;;;1.13;0.60;;;;;;;20.72;100.00;101303.44;4865385;29;20056;-81
2023/07/19 11:04:03;;;;;;;2.75;0.95;;;;;;;20.71;100.00;101299.03;4876164;29;20055;-82
2023/07/19 11:06:33;;;;;;;2.00;0.70;;;;;;;20.74;100.00;101298.94;4882393;29;20052;-79
2023/07/19 11:09:08;;;;;;;2.38;0.98;;;;;;;20.87;100.00;101305.66;4872865;29;20044;-81
2023/07/19 11:11:37;;;;;;;1.58;0.68;;;;;;;20.89;100.00;101301.13;4872139;29;20056;-81
2023/07/19 11:14:05;;;;;;;0.65;0.60;;;;;;;20.95;100.00;101300.91;4835363;29;20071;-81
2023/07/19 11:16:34;;;;;;;0.75;0.63;;;;;;;20.96;100.00;101302.69;4883037;29;20057;-81
2023/07/19 11:19:02;;;;;;;4.03;0.75;;;;;;;21.06;100.00;101299.66;4891969;29;20056;-81
2023/07/19 11:21:29;;;;;;;1.55;0.70;;;;;;;21.23;100.00;101298.19;4873264;29;20523;-81
2023/07/19 11:23:56;;;;;;;0.90;0.70;;;;;;;21.29;100.00;101305.13;4884214;29;20052;-82
2023/07/19 11:26:24;;;;;;;0.68;0.50;;;;;;;21.35;100.00;101298.69;4867618;29;20057;-81